Time;durP1;ratioP1;P1;durP2;ratioP2;P2;SDS_P1;SDS_P2;PMS_P1;PMS_P2;Temp;Humidity;BMP_temperature;BMP_pressure;BME280_temperature;BME280_humidity;BME280_pressure;Samples;Min_cycle;Max_cycle;Signal;HPM_P1;HPM_P2
2022/05/21 00:00:20;;;;;;;0.00;0.00;;;11.60;99.90;;;;;;5074612;28;20049;-76
2022/05/21 00:02:47;;;;;;;1.85;0.65;;;11.50;99.90;;;;;;5074528;28;20063;-76
2022/05/21 00:05:14;;;;;;;0.00;0.00;;;11.50;99.90;;;;;;5074630;28;20064;-76
2022/05/21 00:07:41;;;;;;;0.65;0.20;;;11.50;99.90;;;;;;5074467;28;20393;-76
2022/05/21 00:10:12;;;;;;;0.38;0.38;;;11.50;99.90;;;;;;5074088;28;20048;-76
2022/05/21 00:12:38;;;;;;;0.00;0.00;;;11.50;99.90;;;;;;5057399;28;20062;-76
2022/05/21 00:15:04;;;;;;;0.00;0.00;;;11.50;99.90;;;;;;5074167;28;20405;-76
2022/05/21 00:17:30;;;;;;;0.00;0.00;;;11.50;99.90;;;;;;5074047;28;20051;-76
2022/05/21 00:19:55;;;;;;;0.00;0.00;;;11.50;99.90;;;;;;5074073;28;20127;-76
2022/05/21 00:22:21;;;;;;;0.10;0.03;;;11.50;99.90;;;;;;5073999;28;20135;-76
2022/05/21 00:24:47;;;;;;;0.00;0.00;;;11.50;99.90;;;;;;5073832;28;20044;-76
2022/05/21 00:27:12;;;;;;;0.22;0.08;;;11.50;99.90;;;;;;5074097;28;20385;-76
2022/05/21 00:29:38;;;;;;;0.00;0.00;;;11.60;99.90;;;;;;5073774;28;20388;-76
2022/05/21 00:32:05;;;;;;;0.28;0.15;;;11.50;99.90;;;;;;5073806;28;20036;-76
2022/05/21 00:34:31;;;;;;;0.00;0.00;;;11.50;99.90;;;;;;5073739;28;20045;-76
2022/05/21 00:36:57;;;;;;;0.05;0.00;;;11.40;99.90;;;;;;5057091;28;20173;-76
2022/05/21 00:39:23;;;;;;;0.05;0.00;;;11.40;99.90;;;;;;5056839;28;20164;-76
2022/05/21 00:41:50;;;;;;;0.30;0.00;;;11.50;99.90;;;;;;5072880;28;20048;-76
2022/05/21 00:44:15;;;;;;;0.10;0.10;;;11.40;99.90;;;;;;5056771;28;20488;-76
2022/05/21 00:46:44;;;;;;;10.88;1.27;;;11.50;99.90;;;;;;5056836;28;20056;-76
2022/05/21 00:49:20;;;;;;;1.17;0.20;;;11.50;99.90;;;;;;5073537;28;20051;-76
2022/05/21 00:51:57;;;;;;;0.25;0.25;;;11.50;99.90;;;;;;5056148;28;20056;-76
2022/05/21 00:54:28;;;;;;;0.00;0.00;;;11.50;99.90;;;;;;5056418;28;20048;-76
2022/05/21 00:57:17;;;;;;;0.15;0.15;;;11.50;99.90;;;;;;5056485;28;20455;-76
2022/05/21 00:59:51;;;;;;;0.05;0.00;;;11.50;99.90;;;;;;5072565;28;20056;-76
2022/05/21 01:02:27;;;;;;;0.08;0.00;;;11.50;99.90;;;;;;5056608;28;20446;-76
2022/05/21 01:04:56;;;;;;;0.05;0.05;;;11.50;99.90;;;;;;5056762;28;20098;-76
2022/05/21 01:07:23;;;;;;;0.10;0.10;;;11.50;99.90;;;;;;5056547;28;20484;-76
2022/05/21 01:09:52;;;;;;;0.10;0.10;;;11.50;99.90;;;;;;5073064;28;20139;-76
2022/05/21 01:12:21;;;;;;;1.63;0.55;;;11.50;99.90;;;;;;5073114;28;20043;-76
2022/05/21 01:14:49;;;;;;;0.00;0.00;;;11.50;99.90;;;;;;5073000;28;20393;-76
2022/05/21 01:17:18;;;;;;;0.00;0.00;;;11.50;99.90;;;;;;5073194;28;20044;-76
2022/05/21 01:20:19;;;;;;;0.55;0.20;;;11.50;99.90;;;;;;5072989;28;20063;-76
2022/05/21 01:22:47;;;;;;;3.15;0.47;;;11.50;99.90;;;;;;5019040;28;20093;-76
2022/05/21 01:25:17;;;;;;;0.00;0.00;;;11.50;99.90;;;;;;5018828;28;20056;-76
2022/05/21 01:27:44;;;;;;;0.10;0.00;;;11.50;99.90;;;;;;5035140;28;20048;-76
2022/05/21 01:30:14;;;;;;;0.00;0.00;;;11.50;99.90;;;;;;5034977;28;20559;-76
2022/05/21 01:32:39;;;;;;;0.22;0.20;;;11.50;99.90;;;;;;5035219;28;20056;-76
2022/05/21 01:35:06;;;;;;;0.60;0.60;;;11.50;99.90;;;;;;5035149;28;20041;-76
2022/05/21 01:37:32;;;;;;;0.70;0.15;;;11.60;99.90;;;;;;5035124;28;20053;-76
2022/05/21 01:39:58;;;;;;;0.80;0.20;;;11.50;99.90;;;;;;5034606;28;20094;-76
2022/05/21 01:42:24;;;;;;;0.00;0.00;;;11.60;99.90;;;;;;5035112;28;20037;-77
2022/05/21 01:44:52;;;;;;;0.08;0.08;;;11.60;99.90;;;;;;5034459;28;20049;-76
2022/05/21 01:47:19;;;;;;;1.15;0.50;;;11.60;99.90;;;;;;5032803;28;20064;-76
2022/05/21 01:49:44;;;;;;;1.20;0.20;;;11.70;99.90;;;;;;5032316;28;20045;-76
2022/05/21 01:52:11;;;;;;;1.20;0.20;;;11.70;99.90;;;;;;5035376;28;20045;-75
2022/05/21 01:54:38;;;;;;;0.63;0.45;;;11.70;99.90;;;;;;5024822;28;20060;-76
2022/05/21 01:57:05;;;;;;;0.22;0.22;;;11.70;99.90;;;;;;5024810;28;20048;-75
2022/05/21 01:59:31;;;;;;;0.40;0.40;;;11.70;99.90;;;;;;5079247;28;20416;-76
2022/05/21 02:01:57;;;;;;;2.05;0.82;;;11.70;99.90;;;;;;5079211;28;20056;-76
2022/05/21 02:04:23;;;;;;;0.15;0.15;;;11.80;99.90;;;;;;5062494;28;20118;-76
2022/05/21 02:06:49;;;;;;;0.22;0.10;;;11.80;99.90;;;;;;5062244;28;20060;-76
2022/05/21 02:09:15;;;;;;;0.00;0.00;;;11.80;99.90;;;;;;5079171;28;20040;-76
2022/05/21 02:11:41;;;;;;;2.72;0.98;;;11.80;99.90;;;;;;5062118;28;20033;-76
2022/05/21 02:14:08;;;;;;;0.28;0.10;;;11.80;99.90;;;;;;5079512;28;20225;-76
2022/05/21 02:16:34;;;;;;;0.38;0.20;;;11.90;99.90;;;;;;5079081;28;20131;-76
2022/05/21 02:19:04;;;;;;;0.40;0.40;;;11.90;99.90;;;;;;5062383;28;20048;-76
2022/05/21 02:21:31;;;;;;;3.00;0.60;;;11.90;99.90;;;;;;5062256;28;20107;-76
2022/05/21 02:23:57;;;;;;;1.95;0.88;;;11.90;99.90;;;;;;5061975;28;20072;-76
2022/05/21 02:26:23;;;;;;;0.22;0.22;;;12.00;99.90;;;;;;5079157;28;20143;-76
2022/05/21 02:28:50;;;;;;;0.52;0.52;;;11.90;99.90;;;;;;5062277;28;20045;-75
2022/05/21 02:31:15;;;;;;;0.50;0.40;;;11.90;99.90;;;;;;5078754;28;20044;-76
2022/05/21 02:33:41;;;;;;;0.25;0.10;;;12.00;99.90;;;;;;5078874;28;20558;-76
2022/05/21 02:36:07;;;;;;;1.95;0.55;;;12.00;99.90;;;;;;5078945;28;20044;-76
2022/05/21 02:41:18;;;;;;;0.93;0.68;;;12.00;99.90;;;;;;5078895;28;20507;-76
2022/05/21 02:43:46;;;;;;;0.05;0.00;;;12.00;99.90;;;;;;5078856;28;20181;-76
2022/05/21 02:46:12;;;;;;;0.13;0.13;;;12.10;99.90;;;;;;5078677;28;20048;-76
2022/05/21 02:48:38;;;;;;;0.15;0.15;;;12.10;99.90;;;;;;5061787;28;20045;-76
2022/05/21 02:51:08;;;;;;;0.43;0.43;;;12.10;99.90;;;;;;5078116;28;20051;-76
2022/05/21 02:53:34;;;;;;;0.25;0.05;;;12.10;99.90;;;;;;5061984;28;20084;-76
2022/05/21 02:56:06;;;;;;;0.65;0.65;;;12.10;99.90;;;;;;5079052;28;20149;-76
2022/05/21 02:58:32;;;;;;;1.45;0.73;;;12.10;99.90;;;;;;5062012;28;20503;-76
2022/05/21 03:00:58;;;;;;;0.68;0.68;;;12.20;99.90;;;;;;5078617;28;20048;-75
2022/05/21 03:03:24;;;;;;;1.02;0.90;;;12.20;99.90;;;;;;5078153;28;20044;-76
2022/05/21 03:05:50;;;;;;;0.20;0.20;;;12.20;99.90;;;;;;5058308;28;20076;-76
2022/05/21 03:11:01;;;;;;;0.10;0.10;;;12.20;99.90;;;;;;5075261;28;20114;-76
2022/05/21 03:13:27;;;;;;;0.55;0.55;;;12.20;99.90;;;;;;5058718;28;20420;-77
2022/05/21 03:15:53;;;;;;;0.55;0.28;;;12.20;99.90;;;;;;5075517;28;20040;-76
2022/05/21 03:18:20;;;;;;;0.30;0.30;;;12.20;99.90;;;;;;5058584;28;20155;-76
2022/05/21 03:20:46;;;;;;;1.45;0.22;;;12.20;99.90;;;;;;5075369;28;20075;-75
2022/05/21 03:23:12;;;;;;;0.00;0.00;;;12.20;99.90;;;;;;5058927;28;20052;-75
2022/05/21 03:25:39;;;;;;;0.35;0.35;;;12.10;99.90;;;;;;5058592;28;20385;-76
2022/05/21 03:28:05;;;;;;;0.25;0.22;;;12.20;99.90;;;;;;5058123;28;20480;-76
2022/05/21 03:30:32;;;;;;;1.55;0.30;;;12.20;99.90;;;;;;5058240;28;20043;-76
2022/05/21 03:32:58;;;;;;;0.15;0.15;;;12.30;99.90;;;;;;5075497;28;20373;-76
2022/05/21 03:35:25;;;;;;;0.30;0.30;;;12.20;99.90;;;;;;5075099;28;20085;-76
2022/05/21 03:37:52;;;;;;;0.00;0.00;;;12.20;99.90;;;;;;5074895;28;20404;-76
2022/05/21 03:40:21;;;;;;;0.30;0.30;;;12.20;99.90;;;;;;5074602;28;20048;-76
2022/05/21 03:42:46;;;;;;;3.25;0.30;;;12.20;99.90;;;;;;5074785;28;20051;-76
2022/05/21 03:45:13;;;;;;;0.43;0.43;;;12.20;99.90;;;;;;5074766;28;20053;-76
2022/05/21 03:47:41;;;;;;;0.08;0.08;;;12.20;99.90;;;;;;5057972;28;20594;-76
2022/05/21 03:50:11;;;;;;;0.15;0.15;;;12.20;99.90;;;;;;5074709;28;20127;-76
2022/05/21 03:52:37;;;;;;;0.40;0.32;;;12.20;99.90;;;;;;5057809;28;20166;-76
2022/05/21 03:55:04;;;;;;;7.88;1.02;;;12.30;99.90;;;;;;5074391;28;20087;-77
2022/05/21 03:57:30;;;;;;;0.32;0.05;;;12.20;99.90;;;;;;5057009;28;20063;-76
2022/05/21 03:59:57;;;;;;;0.68;0.20;;;12.30;99.90;;;;;;5074430;28;20140;-76
2022/05/21 04:02:23;;;;;;;0.63;0.45;;;12.30;99.90;;;;;;5057664;28;20064;-76
2022/05/21 04:04:49;;;;;;;0.40;0.13;;;12.30;99.90;;;;;;5057511;28;20508;-76
2022/05/21 04:07:15;;;;;;;0.28;0.10;;;12.30;99.90;;;;;;5074126;28;20045;-76
2022/05/21 04:09:41;;;;;;;4.32;0.60;;;12.30;99.90;;;;;;5074259;28;20040;-76
2022/05/21 04:12:08;;;;;;;0.28;0.15;;;12.40;99.90;;;;;;5074156;28;20049;-76
2022/05/21 04:14:33;;;;;;;0.30;0.30;;;12.40;99.90;;;;;;5057559;28;20056;-76
2022/05/21 04:17:01;;;;;;;0.30;0.20;;;12.40;99.90;;;;;;5073040;28;20045;-76
2022/05/21 04:19:28;;;;;;;0.30;0.30;;;12.30;99.90;;;;;;5057541;28;20099;-76
2022/05/21 04:21:54;;;;;;;0.10;0.10;;;12.30;99.90;;;;;;5057211;28;20465;-76
2022/05/21 04:24:20;;;;;;;0.38;0.10;;;12.40;99.90;;;;;;5073989;28;20135;-76
2022/05/21 04:26:46;;;;;;;0.10;0.10;;;12.30;99.90;;;;;;5073990;28;20087;-76
2022/05/21 04:29:13;;;;;;;0.60;0.50;;;12.40;99.90;;;;;;5073903;28;20400;-76
2022/05/21 04:31:42;;;;;;;0.40;0.22;;;12.30;99.90;;;;;;5073973;28;20106;-76
2022/05/21 04:34:08;;;;;;;0.55;0.55;;;12.40;99.90;;;;;;5073994;28;20044;-76
2022/05/21 04:36:34;;;;;;;0.00;0.00;;;12.40;99.90;;;;;;5073817;28;20484;-76
2022/05/21 04:39:00;;;;;;;0.52;0.15;;;12.40;99.90;;;;;;5073456;28;20106;-76
2022/05/21 04:41:26;;;;;;;0.03;0.00;;;12.50;99.90;;;;;;5073656;28;20048;-76
2022/05/21 04:43:53;;;;;;;0.73;0.50;;;12.50;99.90;;;;;;5074000;28;20082;-76
2022/05/21 04:46:20;;;;;;;0.40;0.40;;;12.50;99.90;;;;;;5056923;28;20049;-76
2022/05/21 04:48:47;;;;;;;0.00;0.00;;;12.50;99.90;;;;;;5073746;28;20179;-76
2022/05/21 04:51:14;;;;;;;0.00;0.00;;;12.60;99.90;;;;;;5072760;28;20555;-76
2022/05/21 04:53:40;;;;;;;0.00;0.00;;;12.50;99.90;;;;;;5073318;28;20127;-76
2022/05/21 04:56:07;;;;;;;0.28;0.28;;;12.60;99.90;;;;;;5073392;28;20033;-76
2022/05/21 04:58:33;;;;;;;1.27;0.88;;;12.70;99.90;;;;;;5073468;28;20048;-76
2022/05/21 05:01:01;;;;;;;0.93;0.10;;;12.70;99.90;;;;;;5073308;28;20079;-76
2022/05/21 05:03:26;;;;;;;0.50;0.50;;;12.70;99.90;;;;;;5073033;28;20049;-76
2022/05/21 05:05:52;;;;;;;0.15;0.15;;;12.80;99.90;;;;;;5072536;28;20143;-76
2022/05/21 05:08:19;;;;;;;0.00;0.00;;;12.80;99.90;;;;;;5072963;28;20087;-76
2022/05/21 05:10:46;;;;;;;0.32;0.20;;;12.80;99.90;;;;;;5073171;28;20040;-76
2022/05/21 05:13:13;;;;;;;0.32;0.20;;;12.80;99.90;;;;;;5056359;28;20044;-76
2022/05/21 05:15:40;;;;;;;0.98;0.30;;;12.80;99.90;;;;;;5056447;28;20048;-76
2022/05/21 05:18:09;;;;;;;0.65;0.50;;;12.90;99.90;;;;;;5056367;28;20110;-76
2022/05/21 05:20:37;;;;;;;4.57;1.15;;;12.90;99.90;;;;;;5056144;28;20438;-76
2022/05/21 05:23:04;;;;;;;0.20;0.10;;;13.00;99.90;;;;;;5072952;28;20051;-76
2022/05/21 05:25:30;;;;;;;0.03;0.03;;;13.00;99.90;;;;;;5056418;28;20060;-76
2022/05/21 05:27:56;;;;;;;0.00;0.00;;;13.10;99.90;;;;;;5072564;28;20048;-76
2022/05/21 05:30:23;;;;;;;0.10;0.10;;;13.10;99.90;;;;;;5056356;28;20036;-76
2022/05/21 05:32:49;;;;;;;0.43;0.43;;;13.20;99.90;;;;;;5072866;28;20036;-76
2022/05/21 05:35:16;;;;;;;0.08;0.08;;;13.30;99.90;;;;;;5055962;28;20064;-76
2022/05/21 05:37:41;;;;;;;0.17;0.10;;;13.40;99.90;;;;;;5072816;28;20051;-76
2022/05/21 05:40:11;;;;;;;1.27;0.75;;;13.40;99.90;;;;;;5072652;28;20048;-76
2022/05/21 05:42:37;;;;;;;0.00;0.00;;;13.50;99.90;;;;;;5055686;28;20091;-76
2022/05/21 05:45:08;;;;;;;0.98;0.45;;;13.60;99.90;;;;;;5070014;28;20052;-77
2022/05/21 05:47:36;;;;;;;0.03;0.03;;;13.60;99.90;;;;;;5054869;28;20072;-76
2022/05/21 05:50:03;;;;;;;0.10;0.10;;;13.60;99.90;;;;;;5069760;28;20527;-76
2022/05/21 05:52:29;;;;;;;0.00;0.00;;;13.60;99.90;;;;;;5069889;28;20117;-76
2022/05/21 05:54:54;;;;;;;0.45;0.43;;;13.70;99.90;;;;;;5070538;28;20480;-76
2022/05/21 05:57:21;;;;;;;0.35;0.25;;;13.80;99.90;;;;;;5054083;28;20088;-76
2022/05/21 05:59:50;;;;;;;1.17;0.88;;;13.80;99.90;;;;;;5070955;28;20068;-76
2022/05/21 06:05:15;;;;;;;0.98;0.45;;;14.10;99.90;;;;;;5070485;28;20398;-77
2022/05/21 06:07:46;;;;;;;0.32;0.32;;;14.20;99.90;;;;;;5071019;28;20044;-76
2022/05/21 06:10:15;;;;;;;0.00;0.00;;;14.30;99.90;;;;;;5070970;28;20084;-77
2022/05/21 06:12:41;;;;;;;0.00;0.00;;;14.40;99.90;;;;;;5054140;28;20385;-77
2022/05/21 06:15:07;;;;;;;0.00;0.00;;;14.50;99.90;;;;;;5070609;28;20048;-76
2022/05/21 06:17:33;;;;;;;0.00;0.00;;;14.40;99.90;;;;;;5071103;28;20074;-76
2022/05/21 06:19:59;;;;;;;0.00;0.00;;;14.40;99.90;;;;;;5054078;28;20053;-77
2022/05/21 06:22:24;;;;;;;0.00;0.00;;;14.30;99.90;;;;;;5070974;28;20546;-77
2022/05/21 06:24:51;;;;;;;0.00;0.00;;;14.20;99.90;;;;;;5070239;28;20040;-77
2022/05/21 06:27:16;;;;;;;0.68;0.57;;;14.20;99.90;;;;;;5070879;28;20090;-76
2022/05/21 06:29:42;;;;;;;0.05;0.05;;;14.20;99.90;;;;;;5069784;28;20048;-76
2022/05/21 06:32:08;;;;;;;0.08;0.00;;;14.30;99.90;;;;;;5055339;28;20117;-77
2022/05/21 06:34:37;;;;;;;0.00;0.00;;;14.40;99.90;;;;;;5072171;28;20041;-77
2022/05/21 06:37:08;;;;;;;0.00;0.00;;;14.40;99.90;;;;;;5055473;28;20577;-76
2022/05/21 06:39:35;;;;;;;0.00;0.00;;;14.50;99.90;;;;;;5073457;28;20045;-77
2022/05/21 06:42:02;;;;;;;1.00;0.10;;;14.50;99.90;;;;;;5060019;28;20105;-77
2022/05/21 06:44:28;;;;;;;0.00;0.00;;;14.50;99.90;;;;;;5075868;28;20051;-77
2022/05/21 06:46:55;;;;;;;0.47;0.03;;;14.50;99.90;;;;;;5076302;28;20043;-77
2022/05/21 06:49:21;;;;;;;6.40;1.23;;;14.60;99.90;;;;;;5059225;28;20048;-77
2022/05/21 06:51:47;;;;;;;0.00;0.00;;;14.50;99.90;;;;;;5058577;28;20052;-77
2022/05/21 06:54:13;;;;;;;0.00;0.00;;;14.70;99.90;;;;;;5075460;28;20048;-76
2022/05/21 06:56:40;;;;;;;0.17;0.03;;;14.80;99.90;;;;;;5059198;28;20037;-76
2022/05/21 06:59:06;;;;;;;0.00;0.00;;;14.80;99.90;;;;;;5075647;28;20398;-77
2022/05/21 07:01:32;;;;;;;0.00;0.00;;;14.90;99.90;;;;;;5058521;28;20067;-76
2022/05/21 07:03:58;;;;;;;0.00;0.00;;;15.00;99.90;;;;;;5075543;28;20055;-76
2022/05/21 07:09:08;;;;;;;0.00;0.00;;;15.20;99.90;;;;;;5076232;28;20048;-77
2022/05/21 07:11:34;;;;;;;0.30;0.30;;;15.20;99.90;;;;;;5075191;28;20507;-77
2022/05/21 07:14:00;;;;;;;0.00;0.00;;;15.20;99.90;;;;;;5058839;28;20057;-77
2022/05/21 07:16:26;;;;;;;0.10;0.10;;;15.30;99.90;;;;;;5058898;28;20088;-77
2022/05/21 07:18:52;;;;;;;3.63;0.70;;;15.50;99.90;;;;;;5074528;28;20420;-77
2022/05/21 07:21:20;;;;;;;0.10;0.10;;;15.50;99.90;;;;;;5075106;28;20496;-77
2022/05/21 07:23:46;;;;;;;0.00;0.00;;;15.50;99.90;;;;;;5074993;28;20060;-77
2022/05/21 07:26:13;;;;;;;0.10;0.10;;;15.60;99.90;;;;;;5072409;28;20048;-77
2022/05/21 07:28:38;;;;;;;0.17;0.17;;;15.60;99.90;;;;;;5073876;28;20553;-76
2022/05/21 07:31:05;;;;;;;0.20;0.20;;;15.60;99.90;;;;;;5072820;28;20049;-77
2022/05/21 07:33:31;;;;;;;0.00;0.00;;;15.60;99.90;;;;;;5071379;28;20082;-76
2022/05/21 07:35:57;;;;;;;0.00;0.00;;;15.70;99.90;;;;;;5071787;28;20504;-76
2022/05/21 07:38:23;;;;;;;0.00;0.00;;;15.90;99.90;;;;;;5072879;28;20052;-77
2022/05/21 07:40:50;;;;;;;0.00;0.00;;;16.00;99.90;;;;;;5072958;28;20052;-77
2022/05/21 07:43:22;;;;;;;0.30;0.30;;;16.10;99.90;;;;;;5056354;28;20109;-77
2022/05/21 07:45:49;;;;;;;0.00;0.00;;;16.20;99.90;;;;;;5055696;28;20361;-77
2022/05/21 07:48:18;;;;;;;0.05;0.00;;;16.20;99.90;;;;;;5055911;28;20057;-77
2022/05/21 07:50:48;;;;;;;0.00;0.00;;;16.30;99.90;;;;;;5055892;28;20404;-76
2022/05/21 07:53:16;;;;;;;2.63;1.05;;;16.50;99.90;;;;;;5055726;28;20059;-77
2022/05/21 07:55:43;;;;;;;0.70;0.70;;;16.60;99.90;;;;;;5072959;28;20039;-77
2022/05/21 07:58:10;;;;;;;0.00;0.00;;;16.60;99.90;;;;;;5072307;28;20131;-77
2022/05/21 08:00:36;;;;;;;0.00;0.00;;;16.60;99.90;;;;;;5055925;28;20044;-76
2022/05/21 08:03:02;;;;;;;0.00;0.00;;;16.70;99.90;;;;;;5055955;28;20121;-76
2022/05/21 08:05:29;;;;;;;0.82;0.75;;;16.80;99.90;;;;;;5062407;28;20489;-77
2022/05/21 08:07:55;;;;;;;0.20;0.20;;;16.90;99.90;;;;;;5052142;28;20053;-77
2022/05/21 08:10:24;;;;;;;0.88;0.08;;;17.00;99.90;;;;;;5036116;28;20053;-77
2022/05/21 08:12:50;;;;;;;0.00;0.00;;;16.90;99.90;;;;;;5061691;28;20102;-77
2022/05/21 08:15:17;;;;;;;9.80;0.80;;;16.70;99.90;;;;;;5072509;28;20125;-76
2022/05/21 08:17:43;;;;;;;0.32;0.30;;;16.40;99.90;;;;;;5067163;28;20097;-77
2022/05/21 08:20:11;;;;;;;0.00;0.00;;;16.20;99.90;;;;;;5071907;28;20135;-77
2022/05/21 08:28:05;;;;;;;0.35;0.35;;;16.40;99.90;;;;;;5070947;28;20056;-77
2022/05/21 08:30:32;;;;;;;0.00;0.00;;;16.40;99.90;;;;;;5055749;28;20041;-77
2022/05/21 08:33:04;;;;;;;0.00;0.00;;;16.40;99.90;;;;;;5073036;28;20061;-77
2022/05/21 08:35:30;;;;;;;0.10;0.05;;;16.30;99.90;;;;;;5071867;28;20047;-77
2022/05/21 08:37:56;;;;;;;0.10;0.10;;;16.30;99.90;;;;;;5071195;28;20111;-77
2022/05/21 08:40:23;;;;;;;0.85;0.30;;;16.50;99.90;;;;;;5070535;28;20541;-77
2022/05/21 08:42:58;;;;;;;0.10;0.10;;;16.80;99.90;;;;;;5055521;28;20052;-77
2022/05/21 08:45:51;;;;;;;0.00;0.00;;;16.80;99.90;;;;;;5072292;28;20055;-77
2022/05/21 08:48:20;;;;;;;0.00;0.00;;;16.60;99.90;;;;;;5054641;28;20190;-77
2022/05/21 08:50:50;;;;;;;0.00;0.00;;;16.50;99.90;;;;;;5071830;28;20040;-77
2022/05/21 08:53:20;;;;;;;0.10;0.10;;;16.40;99.90;;;;;;5054643;28;20048;-77
2022/05/21 08:55:50;;;;;;;0.00;0.00;;;16.50;99.90;;;;;;5071720;28;20052;-77
2022/05/21 08:58:21;;;;;;;0.00;0.00;;;16.50;99.90;;;;;;5071377;28;20049;-77
2022/05/21 09:00:48;;;;;;;0.00;0.00;;;16.50;99.90;;;;;;5071616;28;20048;-77
2022/05/21 09:03:20;;;;;;;0.00;0.00;;;16.50;99.90;;;;;;5054316;28;20048;-77
2022/05/21 09:06:19;;;;;;;0.55;0.40;;;16.50;99.90;;;;;;5070597;28;20432;-77
2022/05/21 09:09:03;;;;;;;0.20;0.00;;;16.60;99.90;;;;;;5071151;28;20048;-77
2022/05/21 09:11:46;;;;;;;0.00;0.00;;;16.80;99.90;;;;;;5070974;28;20408;-77
2022/05/21 09:14:41;;;;;;;0.15;0.15;;;16.80;99.90;;;;;;5054214;28;20492;-77
2022/05/21 09:17:16;;;;;;;0.47;0.38;;;16.90;99.90;;;;;;5046869;28;20092;-77
2022/05/21 09:19:51;;;;;;;0.00;0.00;;;17.00;99.90;;;;;;5050853;28;20520;-77
2022/05/21 09:22:19;;;;;;;0.00;0.00;;;17.00;99.90;;;;;;5051138;28;20075;-77
2022/05/21 09:24:58;;;;;;;0.30;0.17;;;17.00;99.90;;;;;;5051459;28;20133;-77
2022/05/21 09:27:35;;;;;;;0.00;0.00;;;17.30;99.90;;;;;;5050551;28;20098;-78
2022/05/21 09:30:13;;;;;;;0.00;0.00;;;17.70;99.90;;;;;;5051603;28;20052;-77
2022/05/21 09:32:41;;;;;;;0.00;0.00;;;18.10;99.90;;;;;;5034873;28;20045;-76
2022/05/21 09:35:14;;;;;;;2.65;0.65;;;18.20;99.90;;;;;;5052622;28;20094;-78
2022/05/21 09:37:41;;;;;;;0.10;0.10;;;18.10;99.90;;;;;;5036202;28;20053;-78
2022/05/21 09:40:24;;;;;;;0.00;0.00;;;17.80;99.90;;;;;;5036248;28;20049;-77
2022/05/21 09:45:37;;;;;;;0.30;0.20;;;17.80;99.90;;;;;;5053197;28;20136;-78
2022/05/21 09:48:06;;;;;;;0.00;0.00;;;18.10;99.90;;;;;;5052737;28;20055;-77
2022/05/21 09:50:43;;;;;;;0.05;0.05;;;18.30;99.90;;;;;;5036025;28;20128;-77
2022/05/21 09:53:36;;;;;;;0.00;0.00;;;18.50;99.90;;;;;;5035709;28;20060;-78
2022/05/21 09:56:22;;;;;;;0.38;0.20;;;18.40;99.90;;;;;;5052828;28;20378;-77
2022/05/21 09:58:53;;;;;;;0.08;0.08;;;18.20;99.90;;;;;;5052711;28;20496;-78
2022/05/21 10:01:38;;;;;;;0.00;0.00;;;18.00;99.90;;;;;;5036282;28;20063;-78
2022/05/21 10:04:21;;;;;;;0.00;0.00;;;18.10;99.90;;;;;;5052815;28;20102;-79
2022/05/21 10:06:53;;;;;;;0.70;0.35;;;18.10;99.90;;;;;;5036086;28;20049;-77
2022/05/21 10:12:32;;;;;;;0.00;0.00;;;18.20;99.90;;;;;;5070390;28;20060;-77
2022/05/21 10:15:11;;;;;;;0.20;0.20;;;18.20;99.90;;;;;;5073172;28;20449;-77
2022/05/21 10:17:40;;;;;;;0.57;0.17;;;18.50;99.90;;;;;;5054628;28;20091;-77
2022/05/21 10:20:15;;;;;;;0.00;0.00;;;18.80;99.90;;;;;;5065903;28;20052;-77
2022/05/21 10:22:50;;;;;;;0.03;0.03;;;18.90;99.90;;;;;;5074542;28;20123;-78
2022/05/21 10:25:21;;;;;;;0.00;0.00;;;18.90;99.90;;;;;;5075043;28;20053;-77
2022/05/21 10:28:12;;;;;;;0.00;0.00;;;19.10;99.80;;;;;;5073967;28;20496;-78
2022/05/21 10:31:14;;;;;;;0.45;0.43;;;19.20;99.90;;;;;;5037176;28;20053;-77
2022/05/21 10:34:03;;;;;;;0.08;0.08;;;19.40;99.90;;;;;;5038150;28;20144;-77
2022/05/21 10:37:05;;;;;;;0.00;0.00;;;19.30;99.50;;;;;;5039527;28;20040;-77
2022/05/21 10:39:56;;;;;;;0.00;0.00;;;19.20;97.70;;;;;;5056021;28;20094;-77
2022/05/21 10:42:40;;;;;;;0.00;0.00;;;19.20;99.90;;;;;;5056489;28;20053;-78
2022/05/21 10:45:11;;;;;;;0.00;0.00;;;19.20;99.50;;;;;;5039617;28;20060;-77
2022/05/21 10:48:15;;;;;;;0.00;0.00;;;18.90;98.00;;;;;;5039268;28;20056;-77
2022/05/21 10:50:59;;;;;;;0.90;0.20;;;18.80;99.10;;;;;;5055065;28;20132;-77
2022/05/21 10:53:31;;;;;;;0.00;0.00;;;19.10;99.20;;;;;;5055376;28;20059;-77
2022/05/21 10:56:29;;;;;;;1.77;0.47;;;19.00;99.00;;;;;;5055621;28;20045;-77
2022/05/21 10:58:58;;;;;;;0.10;0.10;;;19.00;98.00;;;;;;5038328;28;20143;-77
2022/05/21 11:01:45;;;;;;;0.00;0.00;;;18.90;97.50;;;;;;5039154;28;20091;-77
2022/05/21 11:04:49;;;;;;;0.20;0.20;;;18.90;99.00;;;;;;5038954;28;20131;-78
2022/05/21 11:07:24;;;;;;;0.00;0.00;;;18.70;97.50;;;;;;5055440;28;20049;-78
2022/05/21 11:10:11;;;;;;;0.00;0.00;;;18.60;98.20;;;;;;5055657;28;20048;-78
2022/05/21 11:12:43;;;;;;;0.00;0.00;;;18.60;99.80;;;;;;5055269;28;20497;-77
2022/05/21 11:15:16;;;;;;;0.22;0.05;;;19.00;99.80;;;;;;5055184;28;20051;-78
2022/05/21 11:18:02;;;;;;;0.17;0.13;;;19.20;98.90;;;;;;5055101;28;20489;-77
2022/05/21 11:20:33;;;;;;;0.00;0.00;;;19.40;98.90;;;;;;5037460;28;20052;-78
2022/05/21 11:23:46;;;;;;;0.00;0.00;;;19.60;96.80;;;;;;5054683;28;20060;-78
2022/05/21 11:26:26;;;;;;;0.40;0.30;;;19.30;97.50;;;;;;5016982;28;20053;-78
2022/05/21 11:29:11;;;;;;;0.00;0.00;;;19.20;98.40;;;;;;5001516;28;20057;-77
2022/05/21 11:37:26;;;;;;;1.55;0.43;;;19.30;98.60;;;;;;5017706;28;20092;-77
2022/05/21 11:39:54;;;;;;;0.00;0.00;;;19.50;98.90;;;;;;5017550;28;20046;-77
2022/05/21 11:42:23;;;;;;;16.50;0.90;;;19.50;97.10;;;;;;5017523;28;20057;-77
2022/05/21 11:44:59;;;;;;;0.32;0.10;;;19.50;97.70;;;;;;5017678;28;20053;-78
2022/05/21 11:47:42;;;;;;;0.00;0.00;;;19.50;97.00;;;;;;5000985;28;20090;-78
2022/05/21 11:50:21;;;;;;;0.10;0.10;;;19.60;97.50;;;;;;5017281;28;20520;-77
2022/05/21 11:52:58;;;;;;;0.00;0.00;;;19.70;98.60;;;;;;5017189;28;20091;-78
2022/05/21 11:55:30;;;;;;;0.32;0.32;;;19.70;98.00;;;;;;5017151;28;20132;-77
2022/05/21 11:57:59;;;;;;;1.15;0.22;;;19.80;97.60;;;;;;5017560;28;20199;-77
2022/05/21 12:00:25;;;;;;;0.00;0.00;;;19.80;97.50;;;;;;5017531;28;20049;-78
2022/05/21 12:02:53;;;;;;;0.00;0.00;;;19.80;96.70;;;;;;5054565;28;20110;-77
2022/05/21 12:05:34;;;;;;;0.55;0.10;;;19.70;96.90;;;;;;5054440;28;20051;-77
2022/05/21 12:08:21;;;;;;;0.00;0.00;;;19.70;96.50;;;;;;5054764;28;20098;-77
2022/05/21 12:10:58;;;;;;;0.00;0.00;;;19.80;97.10;;;;;;5054302;28;20037;-77
2022/05/21 12:13:49;;;;;;;0.00;0.00;;;19.90;95.40;;;;;;5054606;28;20074;-77
2022/05/21 12:16:19;;;;;;;0.00;0.00;;;20.10;96.20;;;;;;5016912;28;20524;-77
2022/05/21 12:18:51;;;;;;;0.00;0.00;;;20.10;95.60;;;;;;5016169;28;20069;-77
2022/05/21 12:21:29;;;;;;;0.95;0.45;;;20.20;95.50;;;;;;5016640;28;20062;-77
2022/05/21 12:23:58;;;;;;;0.00;0.00;;;20.10;93.00;;;;;;5016597;28;20436;-77
2022/05/21 12:26:26;;;;;;;0.00;0.00;;;19.90;93.70;;;;;;5016446;28;20064;-77
2022/05/21 12:29:20;;;;;;;0.00;0.00;;;20.00;94.40;;;;;;5016661;28;20048;-77
2022/05/21 12:31:52;;;;;;;0.00;0.00;;;20.00;95.10;;;;;;5000030;28;20081;-77
2022/05/21 12:34:23;;;;;;;0.00;0.00;;;20.10;95.70;;;;;;5016260;28;20627;-77
2022/05/21 12:37:06;;;;;;;0.00;0.00;;;20.40;95.40;;;;;;4999062;28;20508;-77
2022/05/21 12:39:34;;;;;;;0.68;0.38;;;20.50;94.90;;;;;;5016605;28;20058;-77
2022/05/21 12:42:19;;;;;;;0.08;0.08;;;20.40;95.70;;;;;;5016458;28;20045;-77
2022/05/21 12:44:45;;;;;;;0.90;0.30;;;20.30;94.90;;;;;;5000426;28;20053;-77
2022/05/21 12:47:26;;;;;;;0.00;0.00;;;20.30;95.10;;;;;;5016576;28;20061;-77
2022/05/21 12:49:51;;;;;;;0.15;0.15;;;20.20;95.10;;;;;;5016228;28;20041;-77
2022/05/21 12:52:41;;;;;;;0.30;0.28;;;20.40;95.70;;;;;;5018399;28;20068;-77
2022/05/21 12:55:26;;;;;;;0.40;0.32;;;20.30;95.20;;;;;;5037073;28;20053;-77
2022/05/21 12:58:14;;;;;;;;;;;20.20;95.20;;;;;;5038014;28;20428;-77
2022/05/21 13:00:52;;;;;;;0.00;0.00;;;20.20;96.00;;;;;;5053434;28;19947;-77
2022/05/21 13:03:20;;;;;;;0.00;0.00;;;20.50;96.90;;;;;;5053398;28;20502;-77
2022/05/21 13:05:58;;;;;;;0.10;0.00;;;20.60;93.20;;;;;;5053305;28;20051;-77
2022/05/21 13:08:27;;;;;;;1.35;0.55;;;20.70;95.20;;;;;;5053437;28;20041;-77
2022/05/21 13:11:19;;;;;;;0.22;0.03;;;20.50;92.90;;;;;;5036417;28;20522;-77
2022/05/21 13:13:57;;;;;;;1.98;0.50;;;20.00;91.50;;;;;;5037319;28;20049;-77
2022/05/21 13:16:23;;;;;;;0.00;0.00;;;20.00;93.80;;;;;;5053688;28;20049;-77
2022/05/21 13:19:14;;;;;;;0.35;0.35;;;20.20;95.40;;;;;;5053464;28;20119;-77
2022/05/21 13:21:46;;;;;;;1.65;0.30;;;20.20;95.10;;;;;;5053036;28;20049;-77
2022/05/21 13:24:59;;;;;;;0.77;0.32;;;20.20;95.90;;;;;;5053059;28;20033;-77
2022/05/21 13:27:25;;;;;;;0.00;0.00;;;20.20;92.90;;;;;;4999339;28;20088;-77
2022/05/21 13:29:52;;;;;;;0.22;0.22;;;20.20;92.40;;;;;;4999125;28;20041;-77
2022/05/21 13:32:30;;;;;;;0.20;0.20;;;20.10;93.80;;;;;;5014966;28;20053;-77
2022/05/21 13:35:00;;;;;;;0.00;0.00;;;20.30;95.10;;;;;;5015413;28;20068;-77